Oscoda, Michigan
Current Conditions -  °F | °C
As of 11:13 PM on Thursday 27 Nov 2014 (Local Time) from KOSC Reporting Station
Scattered Clouds Scattered Clouds  
Wind Chill:   Ceiling: Unl
Heat Index: 16°   Visibility: 10mi
Dew Point:   Wind: 8mph
Humidity: 67%   Direction: 310°NW
Pressure: 30.28"   Gusts: 16mph
Location:  44.42°N, 83.33°W
Report Text: KOSC 280413Z AUTO 31007G14KT 10SM SCT035 M08/M13 A3028 RMK AO2 T10881140
Loading
Personal Weather Stations






























Interactive Weather Map New forecast layout! Learn more

10-Day Weather Forecast

Advertisements
Track Severe Weather on mobile